Surubim, Brazil
Current Conditions -  °F | °C
As of 11:15 PM on Friday 31 Oct 2014 (Local Time) from SBKG Reporting Station
Broken Clouds Broken Clouds  
Wind Chill: 70°   Ceiling: 1000
Heat Index: 70°   Visibility: 6mi
Dew Point: 68°   Wind: 9mph
Humidity: 94%   Direction: 120°ESE
Pressure: 30.03"   Gusts: NA
Location:  7.83°S, 35.75°W
Report Text: SBKG 010215Z 12008KT 9999 BKN010 21/20 Q1017
Loading
Personal Weather Stations






























Interactive Weather Map
Tropical Storm Tracking
New forecast layout! Learn more

10-Day Weather Forecast

Advertisements
Track Severe Weather on mobile